Latest Weather Observations for Hobart

IDT60901

Issued at 12:41 pm EDT Wednesday 18 January 2017 (issued every 10 minutes, with the page automatically refreshed every 10 minutes)

About weather observations | Map of Hobart area stations | Latest observations for Hobart area | Other Formats
Station Details ID: 094029 Name: HOBART (ELLERSLIE ROAD) Lat: -42.89 Lon: 147.33 Height: 50.5 m
Data from the previous 72 hours. | See also: Recent months at Hobart
Date/Time
EDT
Temp
°C
App
Temp
°C
Dew
Point
°C
Rel
Hum
%
Delta-T
°C
Wind Press
QNH
hPa
Press
MSL
hPa
Rain since
9am
mm
Dir  Spd
km/h
Gust
km/h
Spd
kts
Gust
kts
18/12:30pm 17.6 9.8 1.9 35 7.1 WSW 32 48 17 26 1009.3 1009.3 0.0
18/12:02pm 15.9 9.1 3.2 42 5.8 WSW 28 70 15 38 1009.2 1009.2 0.0
18/12:00pm 16.3 10.1 4.1 44 5.7 WSW 26 48 14 26 1009.2 1009.2 0.0
18/11:53am 15.7 9.0 3.5 44 5.6 WSW 28 48 15 26 1009.2 1009.2 0.0
18/11:30am 16.7 10.8 3.9 42 6.0 WSW 24 43 13 23 1008.5 1008.5 0.0
18/11:07am 16.3 9.5 3.0 41 6.1 WSW 28 46 15 25 1008.2 1008.2 0.0
18/11:00am 17.0 10.6 3.4 40 6.3 WSW 26 39 14 21 1007.9 1007.9 0.0
18/10:30am 16.2 8.8 1.9 38 6.4 SW 30 50 16 27 1007.3 1007.2 0.0
18/10:06am 16.1 9.2 2.7 40 6.1 WSW 28 48 15 26 1007.1 1007.0 0.0
18/10:00am 15.9 9.8 3.0 42 5.9 WSW 24 46 13 25 1007.1 1007.0 0.0
18/09:32am 15.6 8.9 3.4 44 5.6 SW 28 52 15 28 1006.8 1006.7 0.0
18/09:30am 15.3 9.3 3.3 44 5.5 SW 24 52 13 28 1006.7 1006.6 0.0
18/09:02am 15.5 9.8 3.0 43 5.7 WSW 22 48 12 26 1006.0 1005.9 0.0
18/09:00am 15.5 10.2 3.0 43 5.7 SW 20 37 11 20 1006.1 1006.0 0.0
18/08:31am 14.7 8.6 2.7 44 5.4 SW 24 48 13 26 1005.7 1005.6 0.0
18/08:30am 14.7 8.9 2.4 43 5.5 SW 22 48 12 26 1005.6 1005.5 0.0
18/08:00am 13.7 10.0 2.4 46 5.0 S 11 24 6 13 1005.3 1005.2 0.0
18/07:30am 13.6 8.3 1.7 44 5.2 SSW 19 37 10 20 1004.7 1004.6 0.0
18/07:00am 14.0 8.0 1.3 42 5.5 SW 22 46 12 25 1004.1 1004.0 0.0
18/06:51am 14.4 8.4 1.0 40 5.8 WSW 22 52 12 28 1003.8 1003.7 0.0
18/06:30am 14.0 10.1 1.0 41 5.6 ESE 11 32 6 17 1003.3 1003.2 0.0
18/06:00am 14.0 8.5 2.0 44 5.3 WSW 20 48 11 26 1003.1 1003.0 0.0
18/05:37am 14.5 7.1 1.8 42 5.6 W 30 59 16 32 1002.2 1002.1 0.0
18/05:30am 14.4 8.2 2.0 43 5.4 W 24 48 13 26 1001.9 1001.8 0.0
18/05:00am 14.5 4.2 2.4 44 5.4 W 46 96 25 52 1001.4 1001.3 0.0
18/04:59am 14.6 4.2 2.3 43 5.5 W 46 96 25 52 1001.4 1001.3 0.0
18/04:56am 14.7 4.3 1.8 41 5.7 WSW 46 96 25 52 1001.2 1001.1 0.0
18/04:51am 14.8 6.5 1.9 41 5.7 WSW 35 83 19 45 1001.2 1001.1 0.0
18/04:35am 14.8 6.9 4.3 49 4.9 W 35 57 19 31 1001.5 1001.4 0.0
18/04:34am 14.9 7.3 4.1 48 5.0 W 33 57 18 31 1001.6 1001.5 0.0
18/04:30am 15.1 8.1 4.2 48 5.1 WNW 30 57 16 31 1001.4 1001.3 0.0
18/04:28am 15.1 8.4 3.9 47 5.2 WNW 28 57 15 31 1001.1 1001.0 0.0
18/04:00am 14.4 8.5 4.0 49 4.8 NW 24 37 13 20 1000.8 1000.7 0.0
18/03:30am 14.4 8.1 3.7 48 4.9 WNW 26 41 14 22 1000.9 1000.8 0.0
18/03:00am 14.6 10.2 2.6 44 5.4 NW 15 32 8 17 1001.5 1001.4 0.0
18/02:40am 15.2 7.7 1.0 38 6.2 WNW 30 48 16 26 1001.8 1001.7 0.0
18/02:30am 15.1 10.2 1.8 40 5.9 WNW 17 33 9 18 1002.0 1001.9 0.0
18/02:00am 15.9 10.4 1.8 38 6.3 WNW 20 35 11 19 1002.0 1001.9 0.0
18/01:30am 16.7 12.8 3.6 41 6.1 WNW 13 28 7 15 1002.1 1002.0 0.0
18/01:00am 17.7 13.1 5.4 44 6.0 NW 19 43 10 23 1001.7 1001.6 0.0
18/12:30am 18.1 14.4 6.5 46 5.8 NW 15 28 8 15 1001.8 1001.7 0.0
18/12:00am 18.3 13.7 6.5 46 5.9 NW 20 41 11 22 1001.9 1001.8 0.0
 
Date/Time
EDT
Temp
°C
App
Temp
°C
Dew
Point
°C
Rel
Hum
%
Delta-T
°C
Wind Press
QNH
hPa
Press
MSL
hPa
Rain since
9am
mm
Dir  Spd
km/h
Gust
km/h
Spd
kts
Gust
kts
17/11:30pm 18.6 13.5 5.9 43 6.3 NW 22 33 12 18 1002.1 1002.0 0.0
17/11:00pm 17.2 16.7 12.7 75 2.5 WNW 7 15 4 8 1002.5 1002.4 0.0
17/10:30pm 17.3 18.3 13.2 77 2.3 CALM 0 0 0 0 1002.5 1002.4 0.0
17/10:00pm 17.5 17.4 13.3 76 2.4 W 6 9 3 5 1002.5 1002.4 0.0
17/09:30pm 17.7 18.7 13.1 74 2.6 CALM 0 6 0 3 1002.5 1002.4 0.0
17/09:00pm 17.8 17.0 13.0 73 2.7 ESE 9 11 5 6 1002.3 1002.2 0.0
17/08:30pm 18.1 17.4 13.2 73 2.8 SE 9 13 5 7 1002.8 1002.7 0.0
17/08:00pm 18.4 18.0 13.1 71 3.0 SSE 7 9 4 5 1002.8 1002.7 0.0
17/07:30pm 18.4 18.1 13.3 72 2.9 SSE 7 11 4 6 1002.4 1002.3 0.0
17/07:00pm 18.6 17.4 12.9 69 3.2 ESE 11 13 6 7 1002.4 1002.3 0.0
17/06:30pm 18.7 17.0 12.5 67 3.5 SE 13 19 7 10 1002.2 1002.1 0.0
17/06:00pm 18.9 17.2 11.3 61 4.2 S 11 17 6 9 1002.4 1002.3 0.0
17/05:30pm 18.8 16.6 10.7 59 4.4 SSW 13 19 7 10 1002.6 1002.5 0.0
17/05:00pm 18.6 16.2 10.0 57 4.6 S 13 20 7 11 1002.6 1002.5 0.0
17/04:30pm 18.2 14.5 10.2 59 4.3 SE 20 28 11 15 1002.7 1002.6 0.0
17/04:00pm 19.5 16.3 10.0 54 5.1 SE 17 24 9 13 1002.5 1002.4 0.0
17/03:30pm 19.5 14.9 9.6 52 5.3 SE 24 32 13 17 1002.6 1002.5 0.0
17/03:00pm 19.7 14.3 9.4 51 5.5 SE 28 35 15 19 1002.5 1002.4 0.0
17/02:30pm 20.1 16.1 10.4 53 5.3 ESE 22 32 12 17 1002.5 1002.4 0.0
17/02:00pm 20.8 19.3 10.6 52 5.6 SE 9 22 5 12 1002.4 1002.3 0.0
17/01:30pm 21.1 18.4 10.5 50 5.8 E 15 28 8 15 1002.5 1002.4 0.0
17/01:00pm 23.0 21.1 10.6 45 6.9 NE 11 20 6 11 1003.0 1002.9 0.0
17/12:30pm 22.1 20.4 10.0 46 6.6 ESE 9 19 5 10 1003.1 1003.0 0.0
17/12:00pm 21.1 17.8 8.2 43 6.8 ESE 15 19 8 10 1003.2 1003.1 0.0
17/11:30am 21.8 18.2 8.4 42 7.1 SE 17 24 9 13 1003.3 1003.2 0.0
17/11:00am 21.9 19.2 9.0 43 6.9 SSE 13 24 7 13 1003.7 1003.6 0.0
17/10:30am 22.1 18.6 8.6 42 7.2 N 17 30 9 16 1004.0 1003.9 0.0
17/10:00am 20.9 17.1 7.6 42 6.9 NNE 17 28 9 15 1004.3 1004.2 0.0
17/09:30am 19.9 17.2 7.5 44 6.4 N 11 22 6 12 1005.0 1004.9 0.0
17/09:00am 19.1 16.2 8.3 49 5.6 N 13 20 7 11 1005.2 1005.1 0.0
17/08:30am 17.6 15.8 9.4 58 4.3 NE 9 13 5 7 1005.7 1005.6 0.0
17/08:00am 17.2 15.7 9.2 59 4.2 NNW 7 13 4 7 1005.8 1005.7 0.0
17/07:30am 16.4 15.4 10.4 67 3.2 NE 6 7 3 4 1005.7 1005.6 0.0
17/07:00am 14.8 13.6 9.4 70 2.8 W 6 9 3 5 1005.2 1005.1 0.0
17/06:30am 13.2 11.3 8.9 75 2.2 W 9 13 5 7 1005.0 1004.9 0.0
17/06:00am 12.8 9.9 8.2 73 2.3 WSW 13 17 7 9 1004.6 1004.5 0.0
17/05:30am 13.4 10.9 8.2 71 2.6 W 11 17 6 9 1004.3 1004.2 0.0
17/05:00am 13.5 10.2 8.1 70 2.7 WSW 15 19 8 10 1003.9 1003.8 0.0
17/04:30am 13.6 10.7 8.2 70 2.7 WSW 13 17 7 9 1003.7 1003.6 0.0
17/04:00am 14.2 11.3 8.2 67 3.0 WSW 13 17 7 9 1003.8 1003.7 0.0
17/03:30am 15.1 12.2 8.0 62 3.6 W 13 17 7 9 1003.8 1003.7 0.0
17/03:00am 15.7 11.9 7.5 58 4.1 WNW 17 28 9 15 1003.7 1003.6 0.0
17/02:30am 16.4 11.6 7.2 54 4.6 N 22 44 12 24 1003.1 1003.0 0.0
17/02:00am 16.3 11.6 7.6 56 4.4 N 22 41 12 22 1003.8 1003.7 0.0
17/01:30am 16.7 11.5 7.4 54 4.7 NNW 24 39 13 21 1004.3 1004.2 0.0
17/01:00am 17.2 12.3 6.8 50 5.2 NNW 22 41 12 22 1004.2 1004.1 0.0
17/12:30am 17.3 12.4 6.9 50 5.2 NNW 22 35 12 19 1004.7 1004.6 0.0
17/12:00am 15.5 14.5 11.0 74 2.4 WNW 7 15 4 8 1005.5 1005.4 0.0
 
Date/Time
EDT
Temp
°C
App
Temp
°C
Dew
Point
°C
Rel
Hum
%
Delta-T
°C
Wind Press
QNH
hPa
Press
MSL
hPa
Rain since
9am
mm
Dir  Spd
km/h
Gust
km/h
Spd
kts
Gust
kts
16/11:30pm 15.5 14.9 11.8 78 2.0 SW 6 7 3 4 1005.8 1005.7 0.0
16/11:00pm 16.2 17.0 12.6 79 2.0 CALM 0 0 0 0 1005.9 1005.8 0.0
16/10:30pm 16.7 17.1 12.6 77 2.3 NE 2 9 1 5 1006.1 1006.0 0.0
16/10:00pm 17.0 17.5 11.7 71 2.9 CALM 0 6 0 3 1006.3 1006.2 0.0
16/09:30pm 17.4 16.9 12.0 70 3.0 W 6 13 3 7 1006.3 1006.2 0.0
16/09:00pm 18.3 17.3 12.2 67 3.4 SE 9 13 5 7 1006.2 1006.1 0.0
16/08:30pm 18.9 16.9 11.5 62 4.1 SE 13 17 7 9 1006.1 1006.0 0.0
16/08:00pm 19.4 17.3 11.0 58 4.6 SE 13 17 7 9 1006.0 1005.9 0.0
16/07:30pm 19.8 17.2 10.8 56 4.9 SE 15 20 8 11 1006.1 1006.0 0.0
16/07:00pm 20.5 17.7 10.0 51 5.7 SE 15 19 8 10 1006.0 1005.9 0.0
16/06:30pm 21.0 17.9 10.2 50 5.9 SE 17 20 9 11 1006.1 1006.0 0.0
16/06:00pm 20.8 17.2 9.7 49 6.0 SE 19 22 10 12 1006.3 1006.2 0.0
16/05:30pm 21.6 18.0 10.0 47 6.3 SE 19 28 10 15 1006.6 1006.5 0.0
16/05:00pm 21.9 17.7 8.3 41 7.2 SE 20 30 11 16 1006.8 1006.7 0.0
16/04:30pm 22.4 18.8 8.2 40 7.5 ESE 17 24 9 13 1007.1 1007.0 0.0
16/04:00pm 22.7 19.1 8.4 40 7.6 ESE 17 24 9 13 1007.3 1007.2 0.0
16/03:30pm 22.7 18.9 7.6 38 7.9 SE 17 20 9 11 1007.7 1007.7 0.0
16/03:00pm 22.2 18.3 8.7 42 7.2 ESE 19 24 10 13 1007.9 1007.9 0.0
16/02:30pm 22.4 18.6 9.0 42 7.2 ESE 19 28 10 15 1008.3 1008.3 0.0
16/02:00pm 24.0 20.6 7.7 35 8.6 NNW 15 28 8 15 1008.6 1008.6 0.0
16/01:30pm 24.0 18.7 8.3 36 8.4 NW 26 39 14 21 1008.9 1008.9 0.0
16/01:00pm 22.9 17.0 7.7 37 8.0 NNW 28 43 15 23 1009.2 1009.2 0.0
16/12:30pm 22.3 16.9 8.1 40 7.5 NW 26 39 14 21 1009.6 1009.6 0.0
16/12:00pm 21.6 16.5 7.5 40 7.3 NNW 24 37 13 20 1009.8 1009.8 0.0
16/11:30am 21.1 15.5 7.1 40 7.2 NNW 26 41 14 22 1010.0 1010.0 0.0
16/11:00am 20.4 14.4 7.1 42 6.8 NW 28 41 15 22 1010.4 1010.3 0.0
16/10:30am 19.7 14.0 6.9 43 6.5 NNW 26 39 14 21 1010.5 1010.4 0.0
16/10:00am 18.2 13.8 7.3 49 5.5 NNW 20 33 11 18 1010.8 1010.7 0.0
16/09:30am 18.0 13.1 7.1 49 5.5 NNW 22 33 12 18 1011.0 1010.9 0.0
16/09:00am 17.2 11.2 7.0 51 5.1 NNW 28 41 15 22 1010.8 1010.7 0.0
16/08:30am 16.5 11.2 6.6 52 4.9 NNW 24 35 13 19 1010.7 1010.6 0.0
16/08:00am 16.2 11.3 6.7 53 4.7 NNW 22 32 12 17 1010.8 1010.7 0.0
16/07:31am 15.6 9.5 6.6 55 4.4 NW 28 46 15 25 1010.4 1010.3 0.0
16/07:30am 15.5 9.0 6.7 55 4.3 NNW 30 46 16 25 1010.5 1010.4 0.0
16/07:23am 15.1 8.9 6.2 55 4.3 NNW 28 46 15 25 1010.4 1010.3 0.0
16/07:00am 14.3 10.2 6.2 58 3.9 NW 17 28 9 15 1010.4 1010.3 0.0
16/06:30am 13.9 9.2 6.2 59 3.7 NW 20 33 11 18 1010.2 1010.2 0.0
16/06:00am 13.8 8.4 6.3 60 3.6 NW 24 37 13 20 1010.2 1010.2 0.0
16/05:30am 14.0 8.2 6.1 59 3.8 NW 26 41 14 22 1009.8 1009.8 0.0
16/05:00am 14.2 7.6 6.1 58 3.9 NNW 30 44 16 24 1009.7 1009.7 0.0
16/04:30am 14.1 7.0 6.4 60 3.7 NNW 33 46 18 25 1009.5 1009.5 0.0
16/04:00am 14.1 7.6 6.4 60 3.7 NNW 30 41 16 22 1009.4 1009.4 0.0
16/03:30am 14.2 7.3 6.3 59 3.8 NNW 32 46 17 25 1009.7 1009.7 0.0
16/03:00am 14.3 8.2 6.4 59 3.8 NNW 28 39 15 21 1009.9 1009.9 0.0
16/02:30am 14.4 9.4 6.6 59 3.8 NNW 22 32 12 17 1010.4 1010.3 0.0
16/02:00am 14.2 9.6 6.3 59 3.8 NW 20 28 11 15 1010.5 1010.4 0.0
16/01:30am 14.4 9.7 6.1 57 4.0 NW 20 33 11 18 1010.9 1010.8 0.0
16/01:00am 14.6 7.6 6.1 56 4.1 NW 32 50 17 27 1011.2 1011.1 0.0
16/12:46am 14.7 8.1 6.2 56 4.1 NW 30 52 16 28 1011.2 1011.1 0.0
16/12:30am 14.7 8.6 6.5 58 4.0 NW 28 39 15 21 1011.3 1011.2 0.0
16/12:00am 14.8 9.1 6.8 58 3.9 NW 26 37 14 20 1011.6 1011.5 0.0
 
Date/Time
EDT
Temp
°C
App
Temp
°C
Dew
Point
°C
Rel
Hum
%
Delta-T
°C
Wind Press
QNH
hPa
Press
MSL
hPa
Rain since
9am
mm
Dir  Spd
km/h
Gust
km/h
Spd
kts
Gust
kts
15/11:30pm 14.8 9.5 6.8 58 3.9 NW 24 39 13 21 1011.8 1011.7 0.0
15/11:00pm 14.9 10.3 6.5 57 4.1 NW 20 28 11 15 1012.0 1011.9 0.0
15/10:31pm 15.1 8.1 6.0 54 4.4 WNW 32 50 17 27 1012.2 1012.1 0.0
15/10:30pm 15.1 8.1 6.2 55 4.3 WNW 32 44 17 24 1012.2 1012.1 0.0
15/10:00pm 15.3 9.1 6.2 54 4.4 WNW 28 41 15 22 1012.2 1012.1 0.0
15/09:30pm 15.5 7.9 6.0 53 4.6 WNW 35 57 19 31 1011.9 1011.8 0.0
15/09:04pm 15.5 9.3 6.2 54 4.5 WNW 28 50 15 27 1011.9 1011.8 0.0
15/09:00pm 15.5 9.7 6.2 54 4.5 WNW 26 37 14 20 1012.0 1011.9 0.0
15/08:39pm 15.7 9.5 6.0 52 4.7 WNW 28 46 15 25 1012.1 1012.0 0.0
15/08:30pm 15.7 8.2 6.2 53 4.6 NW 35 46 19 25 1012.1 1012.0 0.0
15/08:16pm 16.0 9.0 5.9 51 4.9 WNW 32 50 17 27 1012.1 1012.0 0.0
15/08:00pm 16.2 9.2 6.1 51 4.9 WNW 32 43 17 23 1012.0 1011.9 0.0
15/07:30pm 16.5 10.0 6.3 51 5.0 NW 30 46 16 25 1011.8 1011.7 0.0
15/07:21pm 16.6 10.5 6.4 51 5.0 NW 28 46 15 25 1011.7 1011.6 0.0
15/07:00pm 17.1 10.9 6.1 48 5.4 NW 28 39 15 21 1011.9 1011.8 0.0
15/06:49pm 17.2 10.9 5.9 47 5.5 NW 28 50 15 27 1011.8 1011.7 0.0
15/06:30pm 17.9 11.6 5.9 45 5.9 NW 28 43 15 23 1011.8 1011.7 0.0
15/06:04pm 17.8 10.6 6.0 46 5.8 WNW 33 54 18 29 1011.7 1011.6 0.0
15/06:00pm 17.7 10.5 5.9 46 5.8 WNW 33 44 18 24 1011.8 1011.7 0.0
15/05:30pm 18.1 10.5 5.6 44 6.1 NW 35 54 19 29 1012.0 1011.9 0.0
15/05:03pm 18.2 11.6 6.0 44 6.0 NW 30 50 16 27 1011.8 1011.7 0.0
15/05:00pm 18.3 11.7 6.2 45 6.0 NW 30 43 16 23 1011.8 1011.7 0.0
15/04:30pm 18.4 11.4 5.8 43 6.2 NW 32 43 17 23 1011.9 1011.8 0.0
15/04:10pm 19.0 11.7 5.3 40 6.7 NW 33 52 18 28 1011.9 1011.8 0.0
15/04:00pm 19.2 11.6 5.6 41 6.7 NW 35 48 19 26 1011.8 1011.7 0.0
15/03:30pm 19.8 12.1 5.4 39 7.1 NNW 35 54 19 29 1011.6 1011.5 0.0
15/03:04pm 20.2 13.1 5.7 38 7.2 NW 32 52 17 28 1011.7 1011.6 0.0
15/03:00pm 20.4 13.9 6.3 40 7.1 NW 30 46 16 25 1011.8 1011.7 0.0
15/02:41pm 20.7 13.7 6.7 40 7.1 NW 33 52 18 28 1011.8 1011.7 0.0
15/02:30pm 20.2 12.6 6.0 39 7.1 NW 35 52 19 28 1011.8 1011.7 0.0
15/02:04pm 19.6 12.6 6.2 41 6.7 NNW 32 48 17 26 1011.9 1011.8 0.0
15/02:00pm 19.3 12.2 5.7 41 6.7 NNW 32 48 17 26 1011.9 1011.8 0.0
15/01:39pm 19.2 12.2 5.9 41 6.6 NW 32 54 17 29 1011.9 1011.8 0.0
15/01:30pm 18.9 11.3 6.0 43 6.4 NW 35 50 19 27 1012.1 1012.0 0.0
15/01:21pm 18.9 11.9 6.2 43 6.3 NW 32 50 17 27 1012.0 1011.9 0.0
15/01:00pm 18.2 11.0 5.8 44 6.1 NW 33 50 18 27 1011.9 1011.8 0.0

Latest Capital City Observations: Canberra | Sydney | Melbourne | Brisbane | Adelaide | Perth | Hobart | Darwin

Other Formats:

Comma delimited format used in spreadsheet applications
http://www.bom.gov.au/fwo/IDT60901/IDT60901.94970.axf

JavaScript Object Notation format (JSON) in row-major order
http://www.bom.gov.au/fwo/IDT60901/IDT60901.94970.json